Time;durP1;ratioP1;P1;durP2;ratioP2;P2;SDS_P1;SDS_P2;PMS_P1;PMS_P2;Temp;Humidity;BMP_temperature;BMP_pressure;BME280_temperature;BME280_humidity;BME280_pressure;Samples;Min_cycle;Max_cycle;Signal;HPM_P1;HPM_P2
2023/01/28 00:02:06;;;;;;;6.60;4.50;;;;;;;;;;4995635;28;20046;-67
2023/01/28 00:04:32;;;;;;;6.90;4.40;;;;;;;;;;5012906;28;20112;-67
2023/01/28 00:06:58;;;;;;;5.35;3.97;;;;;;;;;;5012810;28;20406;-67
2023/01/28 00:09:24;;;;;;;4.93;4.43;;;;;;;;;;5013230;28;20068;-68
2023/01/28 00:11:51;;;;;;;6.90;4.10;;;;;;;;;;5013012;28;20198;-67
2023/01/28 00:14:17;;;;;;;5.07;4.07;;;;;;;;;;5012778;28;20133;-67
2023/01/28 00:16:43;;;;;;;7.30;4.60;;;;;;;;;;5013030;28;20052;-67
2023/01/28 00:19:09;;;;;;;5.90;4.35;;;;;;;;;;5012984;28;20544;-67
2023/01/28 00:21:35;;;;;;;6.68;4.90;;;;;;;;;;5012686;28;20510;-70
2023/01/28 00:24:01;;;;;;;6.65;5.10;;;;;;;;;;5013334;28;20085;-67
2023/01/28 00:26:27;;;;;;;6.75;4.88;;;;;;;;;;5013086;28;20057;-67
2023/01/28 00:28:53;;;;;;;7.18;4.85;;;;;;;;;;5012868;28;20103;-67
2023/01/28 00:31:21;;;;;;;6.40;4.90;;;;;;;;;;5012719;28;20072;-67
2023/01/28 00:33:48;;;;;;;7.50;4.93;;;;;;;;;;5012758;28;20046;-67
2023/01/28 00:36:14;;;;;;;6.35;5.07;;;;;;;;;;4995380;28;20368;-67
2023/01/28 00:38:41;;;;;;;5.30;4.43;;;;;;;;;;5012658;28;20050;-67
2023/01/28 00:41:09;;;;;;;7.25;4.80;;;;;;;;;;4995263;28;20050;-67
2023/01/28 00:43:35;;;;;;;5.65;4.85;;;;;;;;;;5012624;28;20060;-67
2023/01/28 00:46:01;;;;;;;;;;;3.20;99.90;;;;;;5013008;28;20092;-68
2023/01/28 00:48:27;;;;;;;7.50;4.75;;;;;;;;;;5012505;28;19961;-67
2023/01/28 00:50:53;;;;;;;6.05;4.88;;;;;;;;;;4994913;28;20046;-67
2023/01/28 00:53:19;;;;;;;6.70;4.60;;;;;;;;;;4995175;28;20096;-67
2023/01/28 00:55:45;;;;;;;4.93;4.20;;;;;;;;;;5012380;28;20050;-67
2023/01/28 00:58:11;;;;;;;6.80;4.82;;;;;;;;;;5012439;28;20462;-67
2023/01/28 01:00:37;;;;;;;7.88;5.63;;;;;;;;;;5012366;28;20127;-67
2023/01/28 01:03:03;;;;;;;6.65;5.30;;;;;;;;;;5012351;28;20054;-67
2023/01/28 01:05:29;;;;;;;7.10;5.20;;;;;;;;;;4994988;28;20056;-67
2023/01/28 01:07:55;;;;;;;7.20;5.10;;;;;;;;;;5011768;28;20396;-69
2023/01/28 01:10:21;;;;;;;8.02;5.28;;;;;;;;;;5012171;28;20133;-67
2023/01/28 01:12:48;;;;;;;6.82;4.70;;;;;;;;;;5012281;28;20054;-67
2023/01/28 01:15:16;;;;;;;9.13;5.30;;;3.40;99.90;;;;;;4994829;28;20409;-67
2023/01/28 01:17:43;;;;;;;6.47;5.53;;;;;;;;;;5012170;28;20052;-67
2023/01/28 01:20:13;;;;;;;7.00;5.40;;;;;;;;;;5012162;28;20046;-66
2023/01/28 01:22:39;;;;;;;6.75;5.30;;;;;;;;;;5012372;28;20486;-67
2023/01/28 01:25:06;;;;;;;6.50;5.20;;;;;;;;;;4994790;28;20605;-67
2023/01/28 01:27:32;;;;;;;7.43;6.10;;;;;;;;;;5014495;28;20091;-67
2023/01/28 01:29:58;;;;;;;7.65;5.82;;;;;;;;;;5016081;28;20129;-67
2023/01/28 01:32:25;;;;;;;7.53;5.45;;;;;;;;;;5016015;28;20057;-67
2023/01/28 01:34:51;;;;;;;10.43;5.50;;;;;;;;;;5015953;28;20049;-68
2023/01/28 01:37:17;;;;;;;7.20;5.93;;;;;;;;;;5015971;28;20041;-67
2023/01/28 01:39:43;;;;;;;7.20;5.50;;;;;;;;;;4998510;28;20050;-70
2023/01/28 01:42:10;;;;;;;6.75;5.45;;;;;;;;;;5015859;28;20100;-70
2023/01/28 01:44:58;;;;;;;8.35;5.20;;;3.20;99.90;;;;;;5015830;28;20049;-68
2023/01/28 01:47:26;;;;;;;7.05;5.65;;;;;;;;;;5015786;28;20483;-67
2023/01/28 01:49:53;;;;;;;8.52;5.82;;;;;;;;;;5015708;28;20049;-67
2023/01/28 01:52:21;;;;;;;;;;;2.90;99.90;;;;;;5016014;28;20133;-67
2023/01/28 01:54:50;;;;;;;8.23;5.68;;;;;;;;;;5015675;28;19921;-67
2023/01/28 01:57:22;;;;;;;8.88;5.88;;;;;;;;;;5015635;28;20049;-67
2023/01/28 01:59:48;;;;;;;7.63;5.55;;;;;;;;;;5015634;28;20049;-67
2023/01/28 02:02:14;;;;;;;8.88;6.13;;;;;;;;;;5015581;28;20128;-67
2023/01/28 02:04:42;;;;;;;7.70;5.72;;;;;;;;;;5015597;28;20056;-67
2023/01/28 02:07:09;;;;;;;8.18;5.78;;;;;;;;;;5015191;28;20561;-67
2023/01/28 02:09:37;;;;;;;6.60;5.65;;;;;;;;;;5015012;28;20463;-67
2023/01/28 02:12:09;;;;;;;8.88;6.03;;;;;;;;;;5015340;28;20100;-67
2023/01/28 02:14:37;;;;;;;9.30;6.50;;;;;;;;;;5015435;28;20378;-67
2023/01/28 02:17:03;;;;;;;9.85;6.28;;;;;;;;;;5015102;28;20522;-67
2023/01/28 02:19:56;;;;;;;9.63;5.53;;;;;;;;;;4997892;28;20052;-67
2023/01/28 02:22:25;;;;;;;7.07;5.82;;;;;;;;;;5011657;28;20528;-67
2023/01/28 02:25:06;;;;;;;7.18;5.30;;;;;;;;;;5015132;28;20050;-67
2023/01/28 02:28:09;;;;;;;8.13;5.50;;;3.00;99.90;;;;;;5015047;28;20057;-68
2023/01/28 02:30:39;;;;;;;9.45;6.38;;;;;;;;;;5015017;28;20046;-67
2023/01/28 02:33:11;;;;;;;8.57;6.30;;;;;;;;;;5014929;28;20386;-67
2023/01/28 02:35:40;;;;;;;9.50;6.40;;;;;;;;;;5014975;28;20068;-69
2023/01/28 02:38:30;;;;;;;8.73;6.97;;;2.70;99.90;;;;;;5014644;28;20058;-69
2023/01/28 02:41:01;;;;;;;9.18;6.35;;;;;;;;;;5015142;28;20346;-67
2023/01/28 02:43:36;;;;;;;10.05;6.82;;;;;;;;;;5014883;28;20054;-67
2023/01/28 02:48:54;;;;;;;7.57;6.05;;;;;;;;;;5014620;28;20050;-67
2023/01/28 02:51:31;;;;;;;9.45;6.40;;;;;;;;;;5014578;28;20042;-67
2023/01/28 02:54:00;;;;;;;9.57;6.63;;;;;;;;;;5014639;28;20053;-68
2023/01/28 02:56:30;;;;;;;11.00;6.18;;;;;;;;;;5014496;28;20058;-67
2023/01/28 02:58:56;;;;;;;9.88;7.03;;;;;;;;;;4997088;28;20360;-67
2023/01/28 03:01:22;;;;;;;8.82;6.50;;;;;;;;;;5014427;28;20490;-67
2023/01/28 03:04:22;;;;;;;8.10;6.18;;;2.60;99.90;;;;;;5014377;28;20457;-67
2023/01/28 03:06:53;;;;;;;11.35;6.80;;;3.10;99.90;;;;;;4996540;28;20363;-67
2023/01/28 03:09:24;;;;;;;8.65;5.93;;;;;;;;;;5014472;28;20402;-68
2023/01/28 03:37:35;;;;;;;9.23;7.15;;;;;;;;;;5013755;28;20089;-67
2023/01/28 03:40:03;;;;;;;10.27;7.30;;;;;;;;;;4996317;28;20081;-69
2023/01/28 03:42:30;;;;;;;10.60;7.18;;;;;;;;;;5013576;28;20050;-67
2023/01/28 03:44:56;;;;;;;10.98;7.03;;;;;;;;;;5013566;28;20050;-68
2023/01/28 03:47:26;;;;;;;9.07;6.72;;;;;;;;;;5013549;28;20060;-69
2023/01/28 03:49:53;;;;;;;9.20;7.00;;;;;;;;;;4995548;28;20046;-68
2023/01/28 03:52:21;;;;;;;13.23;7.65;;;;;;;;;;4995788;28;20085;-67
2023/01/28 03:54:48;;;;;;;9.68;7.47;;;;;;;;;;5013377;28;20052;-68
2023/01/28 03:57:17;;;;;;;9.20;7.28;;;;;;;;;;5013399;28;20061;-67
2023/01/28 03:59:43;;;;;;;9.75;7.22;;;;;;;;;;5013325;28;20111;-67
2023/01/28 04:02:10;;;;;;;9.98;7.60;;;;;;;;;;5013265;28;20141;-67
2023/01/28 04:04:39;;;;;;;10.13;7.03;;;;;;;;;;5013233;28;20388;-67
2023/01/28 04:07:09;;;;;;;10.23;7.40;;;;;;;;;;5013234;28;20052;-67
2023/01/28 04:09:36;;;;;;;9.45;6.70;;;;;;;;;;5013319;28;20517;-67
2023/01/28 04:12:03;;;;;;;9.32;6.97;;;;;;;;;;5013268;28;20057;-67
2023/01/28 04:14:28;;;;;;;;;;;2.70;99.90;;;;;;5013752;28;20058;-67
2023/01/28 04:16:55;;;;;;;9.43;6.50;;;;;;;;;;5013124;28;19922;-67
2023/01/28 04:19:21;;;;;;;;;;;;;;;;;;5013537;28;20089;-67
2023/01/28 04:21:48;;;;;;;10.93;6.80;;;;;;;;;;5012981;28;20370;-67
2023/01/28 04:24:14;;;;;;;10.73;7.22;;;;;;;;;;4995430;28;20402;-68
2023/01/28 04:26:40;;;;;;;11.18;7.47;;;;;;;;;;5012627;28;20514;-67
2023/01/28 04:29:09;;;;;;;9.75;7.20;;;;;;;;;;5012795;28;20061;-67
2023/01/28 04:31:35;;;;;;;9.38;6.53;;;;;;;;;;5012729;28;20042;-67
2023/01/28 04:34:01;;;;;;;11.18;7.55;;;;;;;;;;5012794;28;20097;-67
2023/01/28 04:36:27;;;;;;;11.52;7.45;;;;;;;;;;4995243;28;20072;-67
2023/01/28 04:38:53;;;;;;;10.55;6.90;;;;;;;;;;5012662;28;20054;-69
2023/01/28 04:41:20;;;;;;;9.55;6.78;;;;;;;;;;5012567;28;20045;-69
2023/01/28 04:43:48;;;;;;;11.05;7.35;;;;;;;;;;5012588;28;20100;-67
2023/01/28 04:46:14;;;;;;;9.25;6.78;;;;;;;;;;5012537;28;20136;-67
2023/01/28 04:48:40;;;;;;;;;;;;;;;;;;5012965;28;20124;-67
2023/01/28 04:51:06;;;;;;;13.18;6.45;;;;;;;;;;5012416;28;20013;-67
2023/01/28 04:53:32;;;;;;;9.13;6.55;;;;;;;;;;5012482;28;20052;-67
2023/01/28 04:55:58;;;;;;;10.63;6.88;;;;;;;;;;5012429;28;20116;-68
2023/01/28 04:58:25;;;;;;;10.27;7.38;;;;;;;;;;5012416;28;20049;-67
2023/01/28 05:00:59;;;;;;;8.52;6.07;;;;;;;;;;5011759;28;20120;-68
2023/01/28 05:03:26;;;;;;;12.30;7.80;;;;;;;;;;5012288;28;20104;-68
2023/01/28 05:05:52;;;;;;;11.07;6.80;;;;;;;;;;5012349;28;20542;-67
2023/01/28 05:08:18;;;;;;;8.75;6.88;;;;;;;;;;5012218;28;20108;-67
2023/01/28 05:10:44;;;;;;;10.60;6.78;;;;;;;;;;5012151;28;20053;-67
2023/01/28 05:13:10;;;;;;;8.70;6.72;;;;;;;;;;4994824;28;20073;-69
2023/01/28 05:15:36;;;;;;;9.15;6.85;;;;;;;;;;5012274;28;20050;-69
2023/01/28 05:18:02;;;;;;;10.63;7.05;;;;;;;;;;5012225;28;20057;-67
2023/01/28 05:20:28;;;;;;;9.77;7.10;;;;;;;;;;5012176;28;20057;-67
2023/01/28 05:22:54;;;;;;;9.75;6.85;;;;;;;;;;5012155;28;20140;-67
2023/01/28 05:25:21;;;;;;;10.07;7.10;;;;;;;;;;5012138;28;20041;-67
2023/01/28 05:27:50;;;;;;;10.52;6.90;;;;;;;;;;5012134;28;20053;-67
2023/01/28 05:30:17;;;;;;;12.00;7.05;;;;;;;;;;5012062;28;20053;-67
2023/01/28 05:32:43;;;;;;;12.10;7.43;;;;;;;;;;5011941;28;20050;-67
2023/01/28 05:35:09;;;;;;;8.15;6.43;;;;;;;;;;4994726;28;20061;-68
2023/01/28 05:37:35;;;;;;;10.38;6.60;;;;;;;;;;5012011;28;20046;-67
2023/01/28 05:40:01;;;;;;;9.43;6.85;;;;;;;;;;5012016;28;20046;-67
2023/01/28 05:42:27;;;;;;;10.57;7.28;;;;;;;;;;4994557;28;20112;-67
2023/01/28 05:44:53;;;;;;;9.50;6.75;;;;;;;;;;5011974;28;20064;-68
2023/01/28 05:47:19;;;;;;;11.40;7.18;;;;;;;;;;5011924;28;20097;-67
2023/01/28 05:49:45;;;;;;;8.52;6.55;;;;;;;;;;5011951;28;20397;-67
2023/01/28 05:52:12;;;;;;;11.18;7.53;;;;;;;;;;5011802;28;20053;-67
2023/01/28 05:54:38;;;;;;;9.55;6.63;;;;;;;;;;4994290;28;20045;-67
2023/01/28 05:57:04;;;;;;;8.85;7.03;;;;;;;;;;5011555;28;20785;-68
2023/01/28 05:59:30;;;;;;;12.88;7.57;;;;;;;;;;4994350;28;20046;-67
2023/01/28 06:01:56;;;;;;;9.57;7.28;;;;;;;;;;5011796;28;20042;-67
2023/01/28 06:04:22;;;;;;;13.05;7.25;;;;;;;;;;5011805;28;20053;-67
2023/01/28 06:06:49;;;;;;;10.45;7.18;;;;;;;;;;5011954;28;20057;-67
2023/01/28 06:09:15;;;;;;;9.55;6.63;;;;;;;;;;5011973;28;20494;-68
2023/01/28 06:11:41;;;;;;;10.23;7.22;;;;;;;;;;5011702;28;20081;-67
2023/01/28 06:14:07;;;;;;;10.27;7.25;;;;;;;;;;5014742;28;20092;-67
2023/01/28 06:16:33;;;;;;;10.05;6.53;;;;;;;;;;4997940;28;20490;-67
2023/01/28 06:19:00;;;;;;;10.00;7.13;;;;;;;;;;5015289;28;20719;-68
2023/01/28 06:21:26;;;;;;;10.25;7.45;;;;;;;;;;4997634;28;20495;-67
2023/01/28 06:23:52;;;;;;;15.63;7.70;;;;;;;;;;5015229;28;20398;-67
2023/01/28 06:26:18;;;;;;;8.85;6.90;;;;;;;;;;5015138;28;20041;-67
2023/01/28 06:28:44;;;;;;;11.32;7.00;;;;;;;;;;5015058;28;20112;-67
2023/01/28 06:31:10;;;;;;;12.05;7.03;;;;;;;;;;5014986;28;20724;-67
2023/01/28 06:33:36;;;;;;;8.57;6.30;;;;;;;;;;5015062;28;20084;-67
2023/01/28 06:36:03;;;;;;;9.48;6.25;;;;;;;;;;4997038;28;20491;-67
2023/01/28 06:38:29;;;;;;;9.43;6.85;;;;;;;;;;5014800;28;20060;-67
2023/01/28 06:40:57;;;;;;;9.13;6.50;;;;;;;;;;5014830;28;20050;-67
2023/01/28 06:43:26;;;;;;;9.27;6.28;;;;;;;;;;4997548;28;20054;-67
2023/01/28 06:45:53;;;;;;;9.93;6.70;;;;;;;;;;5014734;28;20085;-67
2023/01/28 06:48:19;;;;;;;14.15;6.90;;;;;;;;;;5014612;28;20486;-66
2023/01/28 06:50:49;;;;;;;9.18;6.90;;;;;;;;;;5014540;28;20054;-67
2023/01/28 06:53:15;;;;;;;9.30;6.50;;;;;;;;;;4997256;28;20060;-67
2023/01/28 06:55:41;;;;;;;9.50;6.57;;;;;;;;;;5014540;28;20053;-67
2023/01/28 06:58:07;;;;;;;9.35;6.10;;;;;;;;;;5014486;28;20089;-68
2023/01/28 07:00:34;;;;;;;9.63;6.68;;;;;;;;;;5014443;28;20050;-67
2023/01/28 07:03:00;;;;;;;8.85;6.30;;;;;;;;;;5014447;28;20050;-67
2023/01/28 07:05:26;;;;;;;10.02;6.90;;;;;;;;;;5014386;28;20137;-67
2023/01/28 07:07:52;;;;;;;10.60;7.10;;;;;;;;;;5014215;28;20073;-66
2023/01/28 07:10:18;;;;;;;11.13;6.95;;;;;;;;;;5014329;28;20093;-68
2023/01/28 07:12:44;;;;;;;9.57;6.65;;;;;;;;;;5013462;28;20089;-67
2023/01/28 07:15:10;;;;;;;11.02;6.80;;;;;;;;;;5014234;28;20076;-69
2023/01/28 07:17:40;;;;;;;8.98;6.38;;;;;;;;;;5014106;28;20045;-67
2023/01/28 07:20:06;;;;;;;9.63;6.88;;;;;;;;;;5014092;28;20159;-67
2023/01/28 07:22:32;;;;;;;;;;;0.90;99.90;;;;;;4980876;28;20060;-67
2023/01/28 07:25:00;;;;;;;10.10;6.50;;;;;;;;;;5013006;28;19929;-66
2023/01/28 07:27:26;;;;;;;12.77;7.05;;;;;;;;;;5019156;28;20056;-67
2023/01/28 07:29:52;;;;;;;10.55;6.57;;;;;;;;;;5013363;28;20087;-67
2023/01/28 07:32:18;;;;;;;10.98;6.88;;;;;;;;;;4990311;28;20056;-67
2023/01/28 07:34:44;;;;;;;9.60;6.85;;;;;;;;;;5033046;28;20478;-68
2023/01/28 07:37:10;;;;;;;10.68;7.05;;;;;;;;;;5032612;28;20063;-69
2023/01/28 07:39:36;;;;;;;11.82;7.68;;;;;;;;;;5032595;28;20128;-67
2023/01/28 07:42:03;;;;;;;9.55;7.18;;;;;;;;;;5032369;28;20080;-67
2023/01/28 07:44:29;;;;;;;;;;;;;;;;;;5033144;28;20099;-67
2023/01/28 07:46:55;;;;;;;10.45;7.30;;;;;;;;;;5032689;28;19980;-76
2023/01/28 07:49:21;;;;;;;12.55;8.20;;;;;;;;;;5032868;28;20095;-67
2023/01/28 07:51:49;;;;;;;10.25;6.95;;;;;;;;;;5032610;28;20048;-67
2023/01/28 07:54:15;;;;;;;13.52;7.47;;;;;;;;;;5032800;28;20053;-68
2023/01/28 07:56:41;;;;;;;12.13;7.78;;;;;;;;;;5032333;28;20049;-68
2023/01/28 07:59:07;;;;;;;11.10;8.07;;;;;;;;;;5032015;28;20490;-69
2023/01/28 08:01:33;;;;;;;13.32;7.55;;;;;;;;;;5032592;28;20042;-68
2023/01/28 08:03:59;;;;;;;11.35;7.70;;;;;;;;;;5033040;28;20053;-67
2023/01/28 08:06:27;;;;;;;9.88;6.40;;;;;;;;;;5032533;28;20126;-68
2023/01/28 08:08:54;;;;;;;10.65;6.82;;;;;;;;;;5032448;28;20065;-67
2023/01/28 08:11:20;;;;;;;9.15;6.25;;;;;;;;;;5031933;28;20048;-67
2023/01/28 08:13:46;;;;;;;11.32;7.10;;;;;;;;;;5032039;28;20049;-68
2023/01/28 08:16:12;;;;;;;;;;;1.20;99.90;;;;;;5032678;28;20489;-68
2023/01/28 08:18:38;;;;;;;11.95;7.25;;;;;;;;;;5014810;28;19925;-68
2023/01/28 08:21:04;;;;;;;13.20;7.40;;;;;;;;;;5032380;28;20041;-68
2023/01/28 08:23:33;;;;;;;12.48;7.43;;;;;;;;;;5032171;28;20049;-68
2023/01/28 08:25:59;;;;;;;13.77;7.80;;;;;;;;;;5029035;28;20057;-72
2023/01/28 08:28:25;;;;;;;;;;;;;;;;;;5028759;28;20487;-67
2023/01/28 08:30:52;;;;;;;13.68;7.78;;;;;;;;;;5031847;28;19924;-68
2023/01/28 08:33:19;;;;;;;15.48;8.73;;;;;;;;;;5031575;28;20515;-66
2023/01/28 08:35:45;;;;;;;12.95;7.90;;;;;;;;;;5031492;28;20053;-67
2023/01/28 08:38:12;;;;;;;11.07;7.63;;;;;;;;;;5030835;28;20049;-72
2023/01/28 08:40:38;;;;;;;15.13;8.68;;;;;;;;;;5031206;28;20497;-67
2023/01/28 08:43:04;;;;;;;11.80;8.00;;;;;;;;;;5031103;28;20045;-67
2023/01/28 08:45:30;;;;;;;;;;;;;;;;;;5031923;28;20056;-66
2023/01/28 08:48:01;;;;;;;12.85;8.20;;;;;;;;;;5031338;28;20019;-67
2023/01/28 08:50:28;;;;;;;12.68;7.97;;;;;;;;;;5031073;28;20502;-67
2023/01/28 08:52:58;;;;;;;11.85;7.93;;;;;;;;;;5031311;28;20486;-66
2023/01/28 08:55:25;;;;;;;13.43;8.32;;;;;;;;;;5031370;28;20096;-67
2023/01/28 08:57:52;;;;;;;16.48;9.10;;;;;;;;;;5030753;28;20053;-68
2023/01/28 09:00:17;;;;;;;;;;;2.20;99.90;;;;;;5031810;28;20478;-67
2023/01/28 09:02:43;;;;;;;12.65;8.48;;;;;;;;;;5031268;28;19971;-66
2023/01/28 09:05:10;;;;;;;14.15;8.65;;;;;;;;;;5031101;28;20114;-67
2023/01/28 09:07:36;;;;;;;16.85;8.20;;;;;;;;;;5031111;28;20049;-67
2023/01/28 09:10:03;;;;;;;14.43;8.75;;;;;;;;;;5031162;28;20104;-66
2023/01/28 09:12:29;;;;;;;12.18;7.85;;;;;;;;;;5030330;28;20128;-69
2023/01/28 09:14:55;;;;;;;18.60;8.57;;;;;;;;;;5031003;28;20057;-67
2023/01/28 09:17:21;;;;;;;11.82;8.10;;;;;;;;;;5031052;28;20052;-67
2023/01/28 09:19:47;;;;;;;;;;;;;;;;;;5031472;28;20053;-66
2023/01/28 09:22:13;;;;;;;12.57;8.15;;;;;;;;;;5031018;28;20277;-66
2023/01/28 09:24:39;;;;;;;11.68;8.10;;;;;;;;;;5031147;28;20124;-66
2023/01/28 09:27:06;;;;;;;12.00;7.40;;;;;;;;;;5012962;28;20053;-68
2023/01/28 09:29:36;;;;;;;13.20;8.57;;;;;;;;;;5031178;28;20084;-67
2023/01/28 09:32:03;;;;;;;14.18;6.90;;;;;;;;;;5030941;28;20080;-67
2023/01/28 09:34:29;;;;;;;11.38;7.15;;;;;;;;;;5027791;28;20152;-67
2023/01/28 09:36:55;;;;;;;13.10;7.60;;;;;;;;;;5030839;28;20089;-66
2023/01/28 09:39:23;;;;;;;12.25;7.85;;;;;;;;;;5031004;28;20092;-66
2023/01/28 09:41:58;;;;;;;11.70;7.43;;;;;;;;;;5030189;28;20081;-65
2023/01/28 09:44:26;;;;;;;13.07;7.65;;;;;;;;;;5030854;28;20124;-66
2023/01/28 09:46:52;;;;;;;15.45;7.90;;;;;;;;;;5030990;28;20041;-66
2023/01/28 09:49:23;;;;;;;11.68;8.07;;;;;;;;;;5034230;28;20047;-66
2023/01/28 09:51:51;;;;;;;12.07;7.13;;;;;;;;;;5034743;28;20168;-66
2023/01/28 09:54:29;;;;;;;13.85;8.00;;;;;;;;;;5018010;28;20436;-66
2023/01/28 09:57:08;;;;;;;11.55;8.32;;;;;;;;;;5034258;28;20041;-65
2023/01/28 09:59:35;;;;;;;12.10;7.82;;;;;;;;;;5035020;28;20049;-65
2023/01/28 10:02:25;;;;;;;14.57;8.02;;;;;;;;;;5034560;28;20052;-67
2023/01/28 10:04:51;;;;;;;12.30;8.10;;;;;;;;;;5006073;28;20061;-66
2023/01/28 10:07:26;;;;;;;13.02;7.97;;;;;;;;;;5034577;28;20046;-66
2023/01/28 10:10:05;;;;;;;12.32;7.72;;;;;;;;;;5016432;28;20061;-69
2023/01/28 10:12:49;;;;;;;10.27;7.18;;;;;;;;;;5033826;28;20057;-66
2023/01/28 10:15:40;;;;;;;13.27;7.88;;;3.30;99.90;;;;;;5033788;28;20048;-65
2023/01/28 10:18:10;;;;;;;13.70;8.45;;;3.50;99.90;;;;;;5034445;28;20038;-66
2023/01/28 10:20:39;;;;;;;12.57;7.68;;;;;;;;;;5033286;28;20048;-66
2023/01/28 10:23:27;;;;;;;14.60;8.18;;;3.50;99.90;;;;;;5034460;28;20045;-66
2023/01/28 10:25:56;;;;;;;13.40;8.30;;;;;;;;;;5034419;28;20049;-66
2023/01/28 10:28:24;;;;;;;12.05;7.50;;;;;;;;;;5034403;28;20402;-66
2023/01/28 10:30:50;;;;;;;12.18;8.52;;;;;;;;;;5034093;28;20425;-68
2023/01/28 10:33:35;;;;;;;;;;;4.00;99.90;;;;;;5034702;28;20099;-66
2023/01/28 10:36:01;;;;;;;12.35;8.00;;;;;;;;;;5033832;28;20377;-66
2023/01/28 10:38:27;;;;;;;12.00;7.38;;;;;;;;;;5032988;28;20087;-66
2023/01/28 10:40:59;;;;;;;17.83;7.63;;;3.90;99.90;;;;;;5023498;28;20851;-66
2023/01/28 10:43:29;;;;;;;16.17;8.27;;;;;;;;;;5034206;28;20041;-66
2023/01/28 10:46:02;;;;;;;13.10;7.32;;;;;;;;;;5033869;28;20413;-67
2023/01/28 10:48:42;;;;;;;12.30;7.70;;;;;;;;;;5016682;28;20139;-66
2023/01/28 10:51:08;;;;;;;13.20;7.55;;;;;;;;;;5033845;28;20045;-73
2023/01/28 10:53:38;;;;;;;11.85;7.28;;;;;;;;;;5034107;28;20053;-67
2023/01/28 10:56:13;;;;;;;10.73;7.43;;;;;;;;;;5033533;28;20438;-67
2023/01/28 10:59:00;;;;;;;13.70;7.03;;;;;;;;;;5033904;28;20136;-67
2023/01/28 11:01:44;;;;;;;10.75;6.78;;;4.30;99.90;;;;;;5032208;28;20397;-67
2023/01/28 11:04:37;;;;;;;11.57;6.75;;;;;;;;;;5032629;28;20049;-67
2023/01/28 11:07:06;;;;;;;10.95;6.53;;;;;;;;;;5030805;28;20061;-68
2023/01/28 11:09:34;;;;;;;11.55;6.78;;;;;;;;;;5033653;28;20057;-67
2023/01/28 11:12:11;;;;;;;10.13;6.53;;;;;;;;;;5033052;28;20128;-67
2023/01/28 11:14:37;;;;;;;;;;;4.30;99.90;;;;;;5033950;28;20508;-67
2023/01/28 11:17:03;;;;;;;8.73;6.07;;;;;;;;;;5033286;28;19924;-67
2023/01/28 11:19:33;;;;;;;9.50;6.32;;;;;;;;;;5033455;28;20049;-67
2023/01/28 11:21:59;;;;;;;10.93;6.10;;;;;;;;;;5033331;28;20077;-67
2023/01/28 11:24:27;;;;;;;12.93;7.28;;;;;;;;;;5033402;28;20049;-67
2023/01/28 11:26:54;;;;;;;10.50;6.78;;;;;;;;;;5032865;28;20060;-69
2023/01/28 11:29:34;;;;;;;11.90;6.80;;;;;;;;;;5032351;28;20080;-67
2023/01/28 11:32:00;;;;;;;12.20;6.82;;;;;;;;;;5032990;28;20076;-67
2023/01/28 11:34:28;;;;;;;13.50;6.93;;;;;;;;;;5033223;28;20069;-67
2023/01/28 11:37:02;;;;;;;10.50;6.45;;;4.60;99.90;;;;;;5033076;28;20053;-67
2023/01/28 11:39:29;;;;;;;11.57;6.45;;;;;;;;;;5031959;28;20724;-68
2023/01/28 11:42:03;;;;;;;11.82;6.30;;;;;;;;;;5033272;28;20041;-67
2023/01/28 11:44:29;;;;;;;9.73;5.78;;;;;;;;;;5032095;28;20147;-72
2023/01/28 11:47:13;;;;;;;21.17;5.63;;;;;;;;;;5032939;28;20045;-67
2023/01/28 11:49:42;;;;;;;8.93;5.28;;;;;;;;;;5032985;28;20399;-67
2023/01/28 11:52:11;;;;;;;11.48;6.07;;;;;;;;;;5048128;28;20049;-68
2023/01/28 11:54:37;;;;;;;12.77;5.22;;;;;;;;;;5032797;28;20103;-67
2023/01/28 11:57:13;;;;;;;10.20;5.80;;;;;;;;;;5032743;28;20051;-68
2023/01/28 11:59:58;;;;;;;11.35;5.60;;;;;;;;;;5032799;28;20489;-67
2023/01/28 12:02:39;;;;;;;11.00;5.78;;;;;;;;;;5032562;28;20051;-69
2023/01/28 12:05:05;;;;;;;10.13;5.97;;;;;;;;;;5032395;28;20390;-67
2023/01/28 12:07:46;;;;;;;12.00;6.32;;;;;;;;;;5032570;28;20424;-67
2023/01/28 12:10:13;;;;;;;11.73;6.75;;;;;;;;;;5030633;28;20474;-67
2023/01/28 12:12:41;;;;;;;10.30;6.13;;;;;;;;;;5032357;28;20095;-69
2023/01/28 12:15:20;;;;;;;10.32;5.95;;;;;;;;;;5032516;28;20053;-67
2023/01/28 12:17:59;;;;;;;15.68;6.45;;;;;;;;;;5029654;28;20413;-67
2023/01/28 12:20:26;;;;;;;12.20;5.88;;;;;;;;;;5032354;28;20072;-67
2023/01/28 12:22:59;;;;;;;8.13;5.15;;;;;;;;;;5033017;28;20120;-67
2023/01/28 12:25:45;;;;;;;9.63;5.03;;;;;;;;;;5032710;28;20049;-67
2023/01/28 12:28:30;;;;;;;11.88;5.97;;;;;;;;;;5032748;28;20103;-68
2023/01/28 12:31:05;;;;;;;9.60;5.40;;;;;;;;;;5032146;28;20046;-66
2023/01/28 12:33:44;;;;;;;10.10;5.28;;;;;;;;;;5032470;28;20083;-67
2023/01/28 12:36:20;;;;;;;11.57;5.65;;;5.00;99.90;;;;;;5032529;28;20049;-67
2023/01/28 12:39:06;;;;;;;11.00;6.00;;;;;;;;;;5032524;28;20148;-68
2023/01/28 12:41:36;;;;;;;10.40;5.18;;;;;;;;;;5032552;28;20367;-68
2023/01/28 12:44:07;;;;;;;8.65;5.20;;;5.70;99.90;;;;;;5032348;28;20053;-67
2023/01/28 12:46:33;;;;;;;10.68;5.20;;;;;;;;;;5032393;28;20371;-67
2023/01/28 12:49:03;;;;;;;10.45;5.40;;;;;;;;;;5032285;28;20564;-67
2023/01/28 12:51:52;;;;;;;8.52;5.07;;;;;;;;;;5032148;28;20045;-67
2023/01/28 12:54:35;;;;;;;8.90;5.13;;;;;;;;;;5014555;28;20053;-67
2023/01/28 12:57:02;;;;;;;8.65;4.50;;;;;;;;;;5032225;28;20077;-67
2023/01/28 12:59:38;;;;;;;9.95;5.03;;;;;;;;;;5032137;28;20136;-67
2023/01/28 13:02:13;;;;;;;8.02;4.97;;;;;;;;;;5021276;28;20064;-69
2023/01/28 13:04:42;;;;;;;10.45;4.50;;;;;;;;;;4978891;28;20062;-67
2023/01/28 13:07:16;;;;;;;8.95;4.70;;;5.80;99.90;;;;;;5012355;28;20049;-68
2023/01/28 13:09:52;;;;;;;11.45;5.35;;;;;;;;;;5011839;28;20058;-67
2023/01/28 13:12:19;;;;;;;11.43;4.43;;;;;;;;;;4994757;28;20121;-67
2023/01/28 13:14:45;;;;;;;8.48;3.67;;;;;;;;;;5012276;28;20060;-68
2023/01/28 13:17:23;;;;;;;6.18;4.13;;;6.00;99.90;;;;;;5012234;28;20100;-67
2023/01/28 13:19:49;;;;;;;5.82;3.53;;;;;;;;;;5012283;28;20049;-68
2023/01/28 13:22:27;;;;;;;9.40;3.90;;;;;;;;;;5012490;28;20132;-68
2023/01/28 13:24:53;;;;;;;10.68;3.45;;;;;;;;;;5016304;28;20049;-67
2023/01/28 13:27:28;;;;;;;6.47;3.45;;;5.50;99.90;;;;;;5016347;28;20096;-68
2023/01/28 13:30:05;;;;;;;5.95;3.75;;;;;;;;;;5016287;28;20042;-67
2023/01/28 13:32:34;;;;;;;8.23;3.72;;;5.70;99.90;;;;;;5016262;28;20135;-67
2023/01/28 13:35:06;;;;;;;7.63;4.20;;;;;;;;;;4998514;28;20378;-68
2023/01/28 13:37:37;;;;;;;6.35;3.33;;;5.90;99.90;;;;;;5016083;28;20049;-67
2023/01/28 13:40:08;;;;;;;8.68;3.65;;;;;;;;;;5016145;28;20052;-67
2023/01/28 13:42:34;;;;;;;8.40;3.72;;;;;;;;;;5016011;28;20042;-67
2023/01/28 13:45:33;;;;;;;8.70;3.75;;;;;;;;;;5016115;28;20060;-68
2023/01/28 13:48:20;;;;;;;6.78;3.85;;;;;;;;;;4972532;28;20549;-67
2023/01/28 13:50:46;;;;;;;;;;;5.80;99.90;;;;;;5016396;28;20107;-67
2023/01/28 13:53:40;;;;;;;9.10;3.70;;;5.80;99.90;;;;;;5015646;28;19922;-68
2023/01/28 13:56:18;;;;;;;6.10;3.50;;;5.60;99.90;;;;;;5015795;28;20053;-67
2023/01/28 13:59:07;;;;;;;7.53;2.95;;;5.70;99.90;;;;;;5001672;28;20133;-66
2023/01/28 14:02:05;;;;;;;5.32;3.28;;;5.60;99.90;;;;;;5018580;28;20052;-67
2023/01/28 14:04:55;;;;;;;;;;;5.70;99.90;;;;;;4982517;28;20111;-69
2023/01/28 14:07:32;;;;;;;13.43;8.00;;;5.50;99.90;;;;;;4997922;28;19971;-68
2023/01/28 14:10:04;;;;;;;7.45;3.85;;;5.60;99.90;;;;;;5015604;28;20066;-67
2023/01/28 14:12:46;;;;;;;5.20;2.58;;;;;;;;;;5015311;28;20046;-69
2023/01/28 14:15:12;;;;;;;8.07;3.00;;;;;;;;;;5015392;28;20053;-68
2023/01/28 14:17:45;;;;;;;5.18;2.67;;;;;;;;;;5015540;28;20563;-67
2023/01/28 14:20:29;;;;;;;7.55;3.85;;;5.60;99.90;;;;;;5032182;28;20049;-67
2023/01/28 14:23:14;;;;;;;5.47;2.53;;;5.50;99.90;;;;;;5034380;28;20135;-68
2023/01/28 14:25:54;;;;;;;7.35;2.67;;;;;;;;;;5034538;28;20687;-67
2023/01/28 14:28:51;;;;;;;9.80;6.18;;;5.60;99.90;;;;;;5033971;28;20049;-68
2023/01/28 14:31:46;;;;;;;6.07;2.67;;;5.30;99.90;;;;;;5034326;28;20406;-67
2023/01/28 14:34:12;;;;;;;18.90;7.35;;;;;;;;;;5020204;28;20493;-67
2023/01/28 14:36:43;;;;;;;9.35;2.92;;;5.60;99.90;;;;;;5034026;28;20397;-67
2023/01/28 14:39:17;;;;;;;6.60;3.25;;;;;;;;;;5034088;28;20411;-67
2023/01/28 14:41:46;;;;;;;4.68;2.47;;;5.30;99.90;;;;;;5034141;28;20041;-67
2023/01/28 14:44:20;;;;;;;24.33;13.93;;;;;;;;;;5033837;28;20042;-67
2023/01/28 14:46:54;;;;;;;4.75;2.75;;;;;;;;;;5033906;28;20119;-68
2023/01/28 14:49:33;;;;;;;9.60;2.38;;;5.50;99.90;;;;;;5036312;28;20056;-67
2023/01/28 14:52:11;;;;;;;7.57;3.05;;;;;;;;;;5033664;28;20050;-70
2023/01/28 14:54:55;;;;;;;6.43;2.10;;;5.60;99.90;;;;;;5032634;28;20490;-68
2023/01/28 14:57:41;;;;;;;4.93;2.22;;;;;;;;;;5034051;28;20049;-67
2023/01/28 15:00:17;;;;;;;4.88;1.95;;;;;;;;;;5016471;28;20393;-67
2023/01/28 15:02:43;;;;;;;5.43;2.50;;;5.60;99.90;;;;;;5034082;28;20081;-67
2023/01/28 15:05:13;;;;;;;;;;;5.30;99.90;;;;;;5034715;28;20070;-68
2023/01/28 15:07:43;;;;;;;6.53;1.98;;;;;;;;;;5027546;28;19936;-69
2023/01/28 15:10:15;;;;;;;7.43;2.35;;;;;;;;;;4993704;28;20058;-67
2023/01/28 15:12:46;;;;;;;5.45;2.33;;;5.30;99.90;;;;;;4979107;28;20082;-66